createdAt,value
2022-08-28T00:01:15.792Z,52.09
2022-08-28T00:03:39.109Z,52.28
2022-08-28T00:06:02.476Z,52.57
2022-08-28T00:08:27.215Z,52.66
2022-08-28T00:10:50.425Z,52.89
2022-08-28T00:13:18.591Z,53.36
2022-08-28T00:15:41.969Z,52.80
2022-08-28T00:18:05.673Z,53.30
2022-08-28T00:20:29.408Z,53.03
2022-08-28T00:22:54.713Z,52.92
2022-08-28T00:25:24.182Z,52.88
2022-08-28T00:27:57.441Z,52.93
2022-08-28T00:30:23.036Z,52.92
2022-08-28T00:32:46.498Z,52.82
2022-08-28T00:35:10.167Z,52.30
2022-08-28T00:37:33.758Z,52.41
2022-08-28T00:39:57.017Z,52.27
2022-08-28T00:42:21.722Z,51.92
2022-08-28T00:44:45.779Z,51.72
2022-08-28T00:47:10.146Z,51.76
2022-08-28T00:49:45.830Z,51.38
2022-08-28T00:52:12.780Z,51.51
2022-08-28T00:54:37.931Z,51.73
2022-08-28T00:57:01.405Z,51.49
2022-08-28T00:59:26.959Z,51.69
2022-08-28T01:01:53.477Z,51.42
2022-08-28T01:04:17.804Z,51.23
2022-08-28T01:06:41.004Z,51.07
2022-08-28T01:09:04.470Z,51.32
2022-08-28T01:11:29.024Z,50.13
2022-08-28T01:13:54.435Z,50.12
2022-08-28T01:16:19.949Z,50.20
2022-08-28T01:18:43.437Z,50.47
2022-08-28T01:21:09.434Z,50.93
2022-08-28T01:23:53.304Z,50.91
2022-08-28T01:26:16.565Z,50.56
2022-08-28T01:28:40.050Z,49.92
2022-08-28T01:31:03.423Z,49.56
2022-08-28T01:33:27.827Z,49.35
2022-08-28T01:35:51.758Z,48.99
2022-08-28T01:38:20.182Z,48.75
2022-08-28T01:40:53.550Z,49.38
2022-08-28T01:43:18.293Z,49.30
2022-08-28T01:45:41.743Z,49.54
2022-08-28T01:48:05.518Z,49.67
2022-08-28T01:50:28.920Z,49.88
2022-08-28T01:52:52.123Z,49.58
2022-08-28T01:55:15.413Z,49.51
2022-08-28T01:57:45.910Z,49.60
2022-08-28T02:00:11.324Z,48.94
2022-08-28T02:02:35.244Z,48.82
2022-08-28T02:04:58.563Z,48.98
2022-08-28T02:07:21.801Z,49.30
2022-08-28T02:09:45.160Z,49.44
2022-08-28T02:12:08.623Z,49.35
2022-08-28T02:14:33.685Z,49.18
2022-08-28T02:16:57.072Z,49.30
2022-08-28T02:19:20.906Z,49.15
2022-08-28T02:21:44.222Z,49.96
2022-08-28T02:24:07.676Z,50.14
2022-08-28T02:26:31.815Z,49.93
2022-08-28T02:28:55.071Z,50.00
2022-08-28T02:31:20.138Z,50.34
2022-08-28T02:33:44.794Z,49.62
2022-08-28T02:36:08.830Z,50.32
2022-08-28T02:38:32.062Z,49.93
2022-08-28T02:40:55.570Z,49.94
2022-08-28T02:43:18.798Z,50.77
2022-08-28T02:45:42.171Z,50.96
2022-08-28T02:48:14.642Z,50.62
2022-08-28T02:50:40.580Z,51.33
2022-08-28T02:53:03.779Z,52.01
2022-08-28T02:55:31.303Z,52.04
2022-08-28T02:57:56.944Z,52.99
2022-08-28T03:00:21.343Z,53.47
2022-08-28T03:02:46.361Z,53.22
2022-08-28T03:05:11.331Z,53.30
2022-08-28T03:07:34.723Z,52.86
2022-08-28T03:09:58.017Z,52.71
2022-08-28T03:12:24.125Z,52.53
2022-08-28T03:14:47.414Z,51.98
2022-08-28T03:17:10.767Z,51.56
2022-08-28T03:19:33.984Z,51.35
2022-08-28T03:21:58.702Z,51.61
2022-08-28T03:24:21.994Z,51.01
2022-08-28T03:26:45.319Z,50.49
2022-08-28T03:29:08.513Z,50.43
2022-08-28T03:31:33.847Z,50.75
2022-08-28T03:33:57.582Z,51.13
2022-08-28T03:36:22.586Z,51.87
2022-08-28T03:38:47.250Z,51.81
2022-08-28T03:41:11.663Z,51.95
2022-08-28T03:43:34.669Z,51.80
2022-08-28T03:45:59.240Z,52.14
2022-08-28T03:48:24.205Z,52.07
2022-08-28T03:50:47.662Z,52.39
2022-08-28T03:53:12.486Z,52.63
2022-08-28T03:55:37.104Z,53.05
2022-08-28T03:58:01.094Z,53.33
2022-08-28T04:00:24.418Z,53.51
2022-08-28T04:02:47.710Z,53.56
2022-08-28T04:05:11.299Z,53.33
2022-08-28T04:07:35.126Z,53.47
2022-08-28T04:09:58.478Z,53.79
2022-08-28T04:12:23.121Z,53.21
2022-08-28T04:14:46.391Z,53.42
2022-08-28T04:17:10.136Z,53.75
2022-08-28T04:19:33.748Z,53.66
2022-08-28T04:21:56.965Z,53.51
2022-08-28T04:24:20.314Z,52.89
2022-08-28T04:26:43.654Z,52.85
2022-08-28T04:29:08.255Z,52.92
2022-08-28T04:31:32.841Z,52.82
2022-08-28T04:33:56.534Z,52.75
2022-08-28T04:36:19.880Z,52.55
2022-08-28T04:38:44.236Z,52.95
2022-08-28T04:41:07.632Z,52.52
2022-08-28T04:43:30.844Z,52.50
2022-08-28T04:45:55.533Z,52.61
2022-08-28T04:48:19.159Z,52.56
2022-08-28T04:50:43.138Z,52.54
2022-08-28T04:53:06.430Z,53.05
2022-08-28T04:55:53.891Z,53.85
2022-08-28T04:58:13.521Z,53.96
2022-08-28T05:00:38.291Z,53.87
2022-08-28T05:03:02.965Z,54.50
2022-08-28T05:05:26.317Z,54.12
2022-08-28T05:07:49.560Z,54.08
2022-08-28T05:10:12.920Z,53.98
2022-08-28T05:12:36.756Z,53.41
2022-08-28T05:15:00.071Z,53.44
2022-08-28T05:17:23.348Z,53.22
2022-08-28T05:19:48.433Z,53.23
2022-08-28T05:22:12.102Z,53.14
2022-08-28T05:24:35.670Z,53.17
2022-08-28T05:27:00.444Z,52.60
2022-08-28T05:29:23.642Z,51.90
2022-08-28T05:31:48.679Z,51.47
2022-08-28T05:34:11.960Z,50.98
2022-08-28T05:36:37.355Z,51.20
2022-08-28T05:39:00.588Z,51.70
2022-08-28T05:41:24.982Z,51.42
2022-08-28T05:43:48.245Z,51.78
2022-08-28T05:46:13.083Z,52.01
2022-08-28T05:48:39.074Z,51.57
2022-08-28T05:51:07.127Z,51.38
2022-08-28T05:53:31.850Z,51.29
2022-08-28T05:55:55.196Z,51.24
2022-08-28T05:58:31.858Z,50.97
2022-08-28T06:00:55.174Z,50.80
2022-08-28T06:03:18.451Z,50.54
2022-08-28T06:05:41.784Z,50.39
2022-08-28T06:08:05.102Z,50.26
2022-08-28T06:10:29.902Z,50.01
2022-08-28T06:12:53.179Z,50.34
2022-08-28T06:15:16.607Z,50.15
2022-08-28T06:17:40.379Z,50.32
2022-08-28T06:20:03.940Z,50.46
2022-08-28T06:22:27.182Z,50.18
2022-08-28T06:24:50.549Z,49.92
2022-08-28T06:27:15.202Z,49.88
2022-08-28T06:29:39.892Z,49.80
2022-08-28T06:32:04.601Z,49.78
2022-08-28T06:34:28.185Z,49.81
2022-08-28T06:36:54.025Z,49.67
2022-08-28T06:39:17.603Z,49.33
2022-08-28T06:41:43.192Z,49.52
2022-08-28T06:44:07.983Z,49.25
2022-08-28T06:46:33.278Z,49.55
2022-08-28T06:48:58.862Z,49.46
2022-08-28T06:51:23.171Z,49.32
2022-08-28T06:53:48.430Z,49.24
2022-08-28T06:56:13.665Z,49.07
2022-08-28T06:58:51.763Z,48.79
2022-08-28T07:01:17.867Z,49.15
2022-08-28T07:03:42.699Z,48.79
2022-08-28T07:06:08.561Z,48.82
2022-08-28T07:08:32.083Z,48.83
2022-08-28T07:10:55.305Z,48.87
2022-08-28T07:13:18.694Z,48.79
2022-08-28T07:15:42.052Z,48.85
2022-08-28T07:18:07.265Z,48.82
2022-08-28T07:20:30.559Z,48.67
2022-08-28T07:22:59.355Z,48.98
2022-08-28T07:25:23.083Z,48.78
2022-08-28T07:27:46.321Z,48.80
2022-08-28T07:30:13.168Z,48.89
2022-08-28T07:32:36.409Z,48.61
2022-08-28T07:35:01.184Z,48.86
2022-08-28T07:37:24.440Z,48.70
2022-08-28T07:39:47.704Z,48.68
2022-08-28T07:42:10.960Z,48.72
2022-08-28T07:44:50.849Z,48.83
2022-08-28T07:47:14.195Z,48.82
2022-08-28T07:49:37.506Z,48.65
2022-08-28T07:52:02.221Z,48.51
2022-08-28T07:54:25.707Z,48.69
2022-08-28T07:56:49.002Z,48.36
2022-08-28T07:59:12.408Z,47.75
2022-08-28T08:01:41.890Z,47.97
2022-08-28T08:04:05.793Z,48.03
2022-08-28T08:06:34.259Z,47.53
2022-08-28T08:08:59.971Z,47.71
2022-08-28T08:11:23.239Z,47.97
2022-08-28T08:13:50.876Z,48.24
2022-08-28T08:16:15.205Z,48.52
2022-08-28T08:18:38.362Z,48.83
2022-08-28T08:21:01.619Z,49.99
2022-08-28T08:23:25.383Z,50.07
2022-08-28T08:25:56.872Z,50.34
2022-08-28T08:28:21.129Z,50.56
2022-08-28T08:30:44.401Z,51.11
2022-08-28T08:33:07.731Z,51.27
2022-08-28T08:35:30.938Z,51.92
2022-08-28T08:37:54.254Z,51.88
2022-08-28T08:40:19.637Z,51.96
2022-08-28T08:42:45.289Z,52.22
2022-08-28T08:45:09.349Z,52.74
2022-08-28T08:47:36.921Z,52.83
2022-08-28T08:50:01.506Z,52.86
2022-08-28T08:52:37.769Z,53.16
2022-08-28T08:55:11.757Z,53.04
2022-08-28T08:57:38.449Z,53.54
2022-08-28T09:00:03.245Z,53.63
2022-08-28T09:02:31.239Z,53.88
2022-08-28T09:04:56.449Z,54.10
2022-08-28T09:07:21.035Z,54.22
2022-08-28T09:09:46.065Z,54.28
2022-08-28T09:12:10.510Z,54.10
2022-08-28T09:14:38.177Z,54.21
2022-08-28T09:17:02.924Z,54.16
2022-08-28T09:19:26.187Z,53.71
2022-08-28T09:21:49.986Z,53.28
2022-08-28T09:24:18.764Z,53.12
2022-08-28T09:26:42.047Z,52.69
2022-08-28T09:29:07.634Z,52.20
2022-08-28T09:31:32.798Z,52.04
2022-08-28T09:33:57.541Z,51.61
2022-08-28T09:36:29.507Z,50.58
2022-08-28T09:39:10.970Z,50.47
2022-08-28T09:41:51.790Z,50.50
2022-08-28T09:44:15.985Z,50.18
2022-08-28T09:46:45.032Z,49.42
2022-08-28T09:49:11.967Z,48.99
2022-08-28T09:51:38.723Z,48.93
2022-08-28T09:54:03.202Z,48.53
2022-08-28T09:56:29.820Z,49.06
2022-08-28T09:58:54.735Z,49.51
2022-08-28T10:01:29.385Z,49.76
2022-08-28T10:03:54.498Z,50.57
2022-08-28T10:06:25.488Z,51.24
2022-08-28T10:08:57.648Z,52.19
2022-08-28T10:11:25.410Z,52.88
2022-08-28T10:13:53.976Z,53.50
2022-08-28T10:16:23.582Z,53.41
2022-08-28T10:18:48.524Z,53.62
2022-08-28T10:21:15.618Z,53.71
2022-08-28T10:23:57.442Z,54.22
2022-08-28T10:26:29.931Z,53.98
2022-08-28T10:28:59.904Z,54.29
2022-08-28T10:31:25.797Z,54.44
2022-08-28T10:33:55.477Z,54.92
2022-08-28T10:36:27.343Z,55.44
2022-08-28T10:39:03.039Z,55.53
2022-08-28T10:41:27.448Z,55.39
2022-08-28T10:43:51.238Z,55.51
2022-08-28T10:46:15.970Z,55.72
2022-08-28T10:48:41.465Z,55.76
2022-08-28T10:51:07.327Z,55.16
2022-08-28T10:53:33.274Z,54.80
2022-08-28T10:55:59.522Z,54.82
2022-08-28T10:58:24.818Z,54.23
2022-08-28T11:00:49.090Z,53.26
2022-08-28T11:03:33.019Z,53.31
2022-08-28T11:06:01.122Z,53.14
2022-08-28T11:08:26.739Z,53.04
2022-08-28T11:10:50.824Z,52.86
2022-08-28T11:13:15.667Z,52.91
2022-08-28T11:16:00.257Z,52.94
2022-08-28T11:18:47.778Z,53.04
2022-08-28T11:21:14.272Z,53.27
2022-08-28T11:23:39.371Z,54.34
2022-08-28T11:26:05.226Z,55.21
2022-08-28T11:28:44.396Z,55.56
2022-08-28T11:31:38.515Z,56.42
2022-08-28T11:34:02.820Z,56.31
2022-08-28T11:36:44.502Z,57.15
2022-08-28T11:39:18.911Z,57.65
2022-08-28T11:42:33.491Z,57.56
2022-08-28T11:44:58.154Z,57.33
2022-08-28T11:47:39.559Z,57.77
2022-08-28T11:50:05.809Z,58.20
2022-08-28T11:52:38.344Z,58.69
2022-08-28T11:55:06.692Z,59.11
2022-08-28T11:57:33.219Z,59.98
2022-08-28T12:00:04.734Z,60.29
2022-08-28T12:02:55.069Z,60.13
2022-08-28T12:05:40.942Z,60.13
2022-08-28T12:08:07.620Z,60.33
2022-08-28T12:10:53.338Z,60.61
2022-08-28T12:13:46.306Z,60.49
2022-08-28T12:16:10.984Z,60.59
2022-08-28T12:19:00.170Z,59.76
2022-08-28T12:21:24.189Z,59.71
2022-08-28T12:23:59.269Z,60.01
2022-08-28T12:26:24.777Z,60.65
2022-08-28T12:28:49.643Z,60.92
2022-08-28T12:32:04.190Z,61.05
2022-08-28T12:34:33.402Z,61.50
2022-08-28T12:36:58.071Z,61.38
2022-08-28T12:39:21.450Z,61.27
2022-08-28T12:41:44.763Z,61.27
2022-08-28T12:44:10.691Z,61.46
2022-08-28T12:46:38.051Z,61.84
2022-08-28T12:49:02.105Z,62.49
2022-08-28T12:51:26.660Z,61.97
2022-08-28T12:53:51.400Z,62.41
2022-08-28T12:56:17.066Z,62.33
2022-08-28T12:58:40.720Z,62.48
2022-08-28T13:01:06.612Z,63.34
2022-08-28T13:03:32.347Z,63.54
2022-08-28T13:06:02.141Z,63.58
2022-08-28T13:08:25.366Z,64.60
2022-08-28T13:10:49.724Z,64.90
2022-08-28T13:13:20.839Z,64.98
2022-08-28T13:15:53.508Z,65.97
2022-08-28T13:18:55.356Z,65.91
2022-08-28T13:21:33.490Z,66.44
2022-08-28T13:23:59.271Z,66.60
2022-08-28T13:26:27.312Z,66.46
2022-08-28T13:28:50.569Z,66.19
2022-08-28T13:31:23.463Z,66.06
2022-08-28T13:34:04.473Z,65.77
2022-08-28T13:36:27.716Z,65.82
2022-08-28T13:38:50.970Z,65.59
2022-08-28T13:41:14.290Z,65.23
2022-08-28T13:43:44.450Z,65.13
2022-08-28T13:46:07.993Z,64.58
2022-08-28T13:48:31.539Z,64.81
2022-08-28T13:50:59.369Z,64.80
2022-08-28T13:53:22.578Z,64.35
2022-08-28T13:55:45.961Z,64.49
2022-08-28T13:58:09.371Z,64.61
2022-08-28T14:00:33.318Z,64.69
2022-08-28T14:03:14.021Z,64.62
2022-08-28T14:05:37.513Z,65.01
2022-08-28T14:08:02.122Z,64.70
2022-08-28T14:10:25.410Z,64.95
2022-08-28T14:12:49.321Z,65.07
2022-08-28T14:15:12.906Z,65.08
2022-08-28T14:17:36.150Z,65.23
2022-08-28T14:20:00.328Z,65.15
2022-08-28T14:22:23.606Z,65.80
2022-08-28T14:24:48.636Z,65.57
2022-08-28T14:27:12.022Z,65.35
2022-08-28T14:29:35.282Z,65.52
2022-08-28T14:31:59.573Z,65.37
2022-08-28T14:34:22.926Z,65.48
2022-08-28T14:36:46.366Z,65.66
2022-08-28T14:39:10.498Z,65.58
2022-08-28T14:41:35.398Z,65.90
2022-08-28T14:43:59.198Z,65.97
2022-08-28T14:46:23.752Z,66.09
2022-08-28T14:48:48.029Z,66.09
2022-08-28T14:51:11.279Z,65.93
2022-08-28T14:53:34.603Z,65.91
2022-08-28T14:55:57.925Z,65.85
2022-08-28T14:58:22.613Z,65.71
2022-08-28T15:00:47.194Z,65.71
2022-08-28T15:03:10.799Z,65.48
2022-08-28T15:05:34.469Z,65.29
2022-08-28T15:07:57.731Z,65.32
2022-08-28T15:10:21.057Z,65.27
2022-08-28T15:12:44.321Z,64.96
2022-08-28T15:15:10.062Z,65.12
2022-08-28T15:17:33.910Z,64.99
2022-08-28T15:20:00.471Z,65.05
2022-08-28T15:22:27.313Z,65.20
2022-08-28T15:24:50.974Z,65.40
2022-08-28T15:27:18.790Z,65.25
2022-08-28T15:29:42.071Z,65.54
2022-08-28T15:32:07.252Z,65.77
2022-08-28T15:34:30.549Z,65.63
2022-08-28T15:36:55.818Z,65.34
2022-08-28T15:39:36.718Z,65.44
2022-08-28T15:42:00.145Z,65.79
2022-08-28T15:44:23.390Z,65.58
2022-08-28T15:46:51.683Z,65.74
2022-08-28T15:49:16.345Z,65.83
2022-08-28T15:51:40.146Z,65.76
2022-08-28T15:54:03.510Z,66.32
2022-08-28T15:56:26.955Z,66.78
2022-08-28T15:58:50.233Z,66.74
2022-08-28T16:01:13.805Z,66.60
2022-08-28T16:03:37.294Z,66.49
2022-08-28T16:06:02.366Z,66.93
2022-08-28T16:08:25.614Z,67.25
2022-08-28T16:10:49.946Z,67.54
2022-08-28T16:13:13.110Z,67.74
2022-08-28T16:15:36.564Z,67.67
2022-08-28T16:17:59.881Z,67.56
2022-08-28T16:20:23.174Z,68.09
2022-08-28T16:22:47.865Z,68.25
2022-08-28T16:25:12.982Z,67.95
2022-08-28T16:27:36.210Z,68.44
2022-08-28T16:29:59.529Z,69.17
2022-08-28T16:32:23.302Z,69.11
2022-08-28T16:34:46.570Z,68.76
2022-08-28T16:37:09.838Z,69.32
2022-08-28T16:39:34.597Z,69.33
2022-08-28T16:41:57.906Z,69.35
2022-08-28T16:44:21.151Z,69.52
2022-08-28T16:46:44.683Z,69.67
2022-08-28T16:49:07.945Z,70.12
2022-08-28T16:51:31.666Z,70.02
2022-08-28T16:53:54.953Z,69.99
2022-08-28T16:56:19.667Z,69.83
2022-08-28T16:58:43.160Z,69.79
2022-08-28T17:01:07.015Z,69.55
2022-08-28T17:03:30.513Z,69.54
2022-08-28T17:05:54.164Z,69.31
2022-08-28T17:08:17.448Z,69.38
2022-08-28T17:10:40.776Z,68.90
2022-08-28T17:13:05.390Z,68.61
2022-08-28T17:15:28.905Z,68.32
2022-08-28T17:17:52.449Z,68.55
2022-08-28T17:20:29.679Z,68.45
2022-08-28T17:22:53.018Z,68.08
2022-08-28T17:25:16.571Z,67.98
2022-08-28T17:27:39.852Z,68.07
2022-08-28T17:30:05.242Z,68.19
2022-08-28T17:32:28.601Z,68.04
2022-08-28T17:34:51.854Z,67.92
2022-08-28T17:37:15.794Z,68.01
2022-08-28T17:39:39.146Z,68.08
2022-08-28T17:42:02.427Z,67.88
2022-08-28T17:44:26.095Z,67.91
2022-08-28T17:46:51.815Z,68.01
2022-08-28T17:49:15.131Z,67.78
2022-08-28T17:51:42.310Z,67.66
2022-08-28T17:54:07.242Z,67.64
2022-08-28T17:56:35.809Z,67.53
2022-08-28T17:58:59.498Z,67.60
2022-08-28T18:01:24.828Z,67.74
2022-08-28T18:03:53.513Z,67.36
2022-08-28T18:06:16.861Z,67.42
2022-08-28T18:08:40.183Z,67.56
2022-08-28T18:11:04.094Z,67.73
2022-08-28T18:13:27.469Z,67.84
2022-08-28T18:15:56.649Z,67.85
2022-08-28T18:18:20.479Z,67.50
2022-08-28T18:20:51.769Z,67.46
2022-08-28T18:23:17.169Z,67.29
2022-08-28T18:25:46.674Z,67.35
2022-08-28T18:28:17.772Z,67.29
2022-08-28T18:30:45.031Z,67.26
2022-08-28T18:33:08.359Z,67.43
2022-08-28T18:35:32.392Z,67.42
2022-08-28T18:37:57.666Z,67.26
2022-08-28T18:40:21.315Z,67.16
2022-08-28T18:42:44.904Z,67.04
2022-08-28T18:45:09.305Z,66.92
2022-08-28T18:47:32.935Z,66.71
2022-08-28T18:49:56.451Z,66.57
2022-08-28T18:52:19.919Z,66.83
2022-08-28T18:54:44.816Z,66.38
2022-08-28T18:57:09.638Z,66.47
2022-08-28T18:59:34.925Z,66.68
2022-08-28T19:01:58.496Z,66.61
2022-08-28T19:04:21.908Z,66.50
2022-08-28T19:06:45.221Z,66.45
2022-08-28T19:09:09.796Z,66.38
2022-08-28T19:11:44.192Z,66.46
2022-08-28T19:14:07.477Z,66.04
2022-08-28T19:16:31.668Z,66.16
2022-08-28T19:18:55.752Z,66.21
2022-08-28T19:21:19.756Z,66.11
2022-08-28T19:23:44.600Z,65.69
2022-08-28T19:26:18.966Z,65.92
2022-08-28T19:28:45.408Z,66.05
2022-08-28T19:31:09.022Z,66.11
2022-08-28T19:33:32.364Z,65.83
2022-08-28T19:35:55.786Z,65.72
2022-08-28T19:38:19.088Z,66.20
2022-08-28T19:40:42.385Z,66.14
2022-08-28T19:43:05.945Z,66.46
2022-08-28T19:45:30.646Z,66.19
2022-08-28T19:47:53.982Z,66.81
2022-08-28T19:50:17.596Z,66.96
2022-08-28T19:52:41.166Z,66.45
2022-08-28T19:55:06.205Z,66.28
2022-08-28T19:57:29.657Z,66.21
2022-08-28T19:59:52.981Z,66.03
2022-08-28T20:02:17.742Z,65.49
2022-08-28T20:04:41.086Z,65.91
2022-08-28T20:07:04.880Z,65.87
2022-08-28T20:09:28.459Z,66.74
2022-08-28T20:11:52.479Z,66.94
2022-08-28T20:14:15.865Z,66.20
2022-08-28T20:16:40.362Z,66.29
2022-08-28T20:19:05.054Z,66.60
2022-08-28T20:21:37.397Z,66.18
2022-08-28T20:24:01.327Z,66.25
2022-08-28T20:26:24.559Z,65.96
2022-08-28T20:28:53.987Z,65.50
2022-08-28T20:31:18.244Z,65.47
2022-08-28T20:33:41.858Z,65.62
2022-08-28T20:36:07.662Z,65.64
2022-08-28T20:38:39.746Z,65.60
2022-08-28T20:41:07.206Z,65.12
2022-08-28T20:43:30.507Z,64.90
2022-08-28T20:45:53.811Z,64.40
2022-08-28T20:48:17.273Z,64.19
2022-08-28T20:50:40.557Z,63.63
2022-08-28T20:53:05.202Z,63.71
2022-08-28T20:55:28.490Z,62.92
2022-08-28T20:57:52.527Z,62.15
2022-08-28T21:00:15.983Z,61.86
2022-08-28T21:02:39.264Z,61.27
2022-08-28T21:05:02.704Z,61.10
2022-08-28T21:07:26.603Z,61.08
2022-08-28T21:10:05.181Z,60.00
2022-08-28T21:12:29.938Z,60.05
2022-08-28T21:14:53.450Z,60.03
2022-08-28T21:17:22.694Z,59.46
2022-08-28T21:19:53.690Z,59.09
2022-08-28T21:22:17.043Z,57.86
2022-08-28T21:24:42.966Z,57.77
2022-08-28T21:27:09.598Z,56.98
2022-08-28T21:29:32.912Z,56.51
2022-08-28T21:31:56.148Z,55.55
2022-08-28T21:34:19.479Z,54.84
2022-08-28T21:36:49.533Z,54.57
2022-08-28T21:39:13.559Z,54.88
2022-08-28T21:41:36.779Z,53.47
2022-08-28T21:44:01.473Z,53.81
2022-08-28T21:46:24.770Z,53.88
2022-08-28T21:48:49.321Z,52.70
2022-08-28T21:51:13.567Z,52.47
2022-08-28T21:53:36.695Z,53.01
2022-08-28T21:55:59.987Z,52.94
2022-08-28T21:58:23.458Z,52.59
2022-08-28T22:00:49.060Z,52.56
2022-08-28T22:03:12.278Z,51.79
2022-08-28T22:05:35.621Z,51.57
2022-08-28T22:07:58.878Z,51.37
2022-08-28T22:10:23.010Z,51.36
2022-08-28T22:12:46.241Z,51.75
2022-08-28T22:15:09.880Z,51.13
2022-08-28T22:17:34.476Z,50.17
2022-08-28T22:19:57.854Z,49.82
2022-08-28T22:22:38.546Z,49.91
2022-08-28T22:25:01.839Z,49.65
2022-08-28T22:27:25.159Z,49.17
2022-08-28T22:29:48.386Z,48.35
2022-08-28T22:32:11.791Z,48.35
2022-08-28T22:34:38.982Z,48.53
2022-08-28T22:37:02.240Z,47.86
2022-08-28T22:39:25.508Z,47.86
2022-08-28T22:41:48.813Z,47.45
2022-08-28T22:44:12.082Z,47.47
2022-08-28T22:46:36.008Z,47.56
2022-08-28T22:48:59.340Z,47.86
2022-08-28T22:51:24.045Z,47.81
2022-08-28T22:53:47.453Z,47.97
2022-08-28T22:56:11.290Z,47.08
2022-08-28T22:58:34.607Z,47.04
2022-08-28T23:00:58.116Z,46.66
2022-08-28T23:03:21.418Z,46.45
2022-08-28T23:05:44.819Z,46.25
2022-08-28T23:08:09.483Z,46.82
2022-08-28T23:10:57.390Z,46.91
2022-08-28T23:13:16.204Z,46.53
2022-08-28T23:15:39.446Z,46.69
2022-08-28T23:18:03.653Z,46.00
2022-08-28T23:20:28.728Z,46.11
2022-08-28T23:22:56.394Z,45.90
2022-08-28T23:25:23.671Z,45.55
2022-08-28T23:27:47.165Z,45.50
2022-08-28T23:30:10.979Z,45.91
2022-08-28T23:32:34.310Z,45.53
2022-08-28T23:34:57.518Z,44.94
2022-08-28T23:37:20.873Z,44.98
2022-08-28T23:39:45.870Z,45.27
2022-08-28T23:42:10.524Z,44.58
2022-08-28T23:44:33.744Z,43.82
2022-08-28T23:46:57.166Z,44.25
2022-08-28T23:49:24.908Z,44.26
2022-08-28T23:51:49.988Z,43.97
2022-08-28T23:54:15.547Z,43.36
2022-08-28T23:56:38.845Z,43.08
2022-08-28T23:59:03.856Z,42.89
